Terminal Aerodrome Forecast
Issued by NWS Cleveland, OH

Home | Current Version | Previous Version | Graphics & Text | Print | Product List | Glossary On
Versions: 1 2 3 4 5 6 7 8 9 10 11 12 13 14
416
FTUS41 KCLE 221120
TAFMFD
TAF
KMFD 221120Z 2212/2312 00000KT P6SM SKC
     FM221600 03006KT P6SM SCT250
     FM230200 VRB03KT P6SM SCT250=

USA.gov is the U.S. government's official web portal to all federal, state and local government web resources and services.